Terminal Aerodrome Forecast
Issued by NWS Melbourne, FL

Home | Current Version | Previous Version | Text Only | Print | Product List | Glossary On
Versions: 1 2 3 4 5 6 7 8 9 10 11 12 13 14 15 16
365
FTUS42 KMLB 242014 AAA
TAFVRB
TAF AMD
KVRB 242014Z 2420/2518 22018G29KT P6SM VCSH SCT025 BKN050
      TEMPO 2420/2421 VRB25G34KT 2SM TSRA BKN025CB
     FM242100 23017G25KT P6SM VCTS SCT030CB OVC060
      TEMPO 2421/2501 2SM TSRA BKN020CB OVC030
     FM250100 23014G22KT P6SM VCSH SCT030 OVC050
      TEMPO 2501/2503 2SM TSRA BKN025CB OVC050
     FM250300 22012G20KT P6SM VCSH SCT030 OVC050
     FM251400 25019G26KT P6SM SCT030 BKN050=

USA.gov is the U.S. government's official web portal to all federal, state and local government web resources and services.